Time;durP1;ratioP1;P1;durP2;ratioP2;P2;SDS_P1;SDS_P2;PMS_P1;PMS_P2;Temp;Humidity;BMP_temperature;BMP_pressure;BME280_temperature;BME280_humidity;BME280_pressure;Samples;Min_cycle;Max_cycle;Signal;HPM_P1;HPM_P2
2023/04/22 00:01:02;;;;;;;97.40;54.10;;;15.90;68.40;;;;;;4997036;28;92437;-81
2023/04/22 00:03:27;;;;;;;96.53;53.53;;;15.90;68.40;;;;;;4999782;28;89696;-80
2023/04/22 00:05:53;;;;;;;96.80;54.00;;;15.90;68.40;;;;;;4993328;28;89368;-83
2023/04/22 00:08:19;;;;;;;97.88;53.70;;;15.90;68.40;;;;;;4997500;28;92988;-79
2023/04/22 00:10:45;;;;;;;96.82;53.78;;;15.80;68.40;;;;;;4998186;28;91277;-81
2023/04/22 00:13:10;;;;;;;96.07;53.53;;;15.80;68.30;;;;;;5000133;28;90756;-82
2023/04/22 00:15:36;;;;;;;96.68;53.85;;;15.80;68.40;;;;;;4998678;28;92430;-80
2023/04/22 00:18:02;;;;;;;97.53;53.88;;;15.80;68.40;;;;;;4995303;28;91527;-79
2023/04/22 00:20:28;;;;;;;97.55;54.08;;;15.80;68.30;;;;;;4995143;28;90334;-79
2023/04/22 00:22:53;;;;;;;96.35;53.47;;;15.80;68.40;;;;;;5000811;28;89681;-78
2023/04/22 00:25:19;;;;;;;95.85;53.60;;;15.70;68.30;;;;;;4995120;28;89206;-81
2023/04/22 00:27:45;;;;;;;97.65;53.65;;;15.70;68.30;;;;;;4996167;28;92793;-80
2023/04/22 00:30:11;;;;;;;97.38;53.75;;;15.70;68.40;;;;;;5012956;28;93361;-80
2023/04/22 00:32:37;;;;;;;97.28;54.28;;;15.70;68.30;;;;;;4994153;28;89589;-80
2023/04/22 00:35:03;;;;;;;96.93;53.72;;;15.70;68.30;;;;;;5000567;28;89415;-78
2023/04/22 00:37:29;;;;;;;96.07;53.95;;;15.70;68.30;;;;;;4997130;28;93554;-79
2023/04/22 00:39:56;;;;;;;96.40;53.53;;;15.70;68.30;;;;;;4999205;28;93007;-79
2023/04/22 00:42:22;;;;;;;96.70;54.00;;;15.70;68.30;;;;;;4993006;28;89599;-80
2023/04/22 00:44:50;;;;;;;97.18;54.28;;;15.70;68.30;;;;;;4998501;28;89471;-79
2023/04/22 00:47:16;;;;;;;96.82;53.88;;;15.70;68.30;;;;;;4995124;28;92555;-79
2023/04/22 00:49:42;;;;;;;96.25;53.97;;;15.60;68.20;;;;;;4992580;28;90965;-79
2023/04/22 00:52:08;;;;;;;98.50;54.28;;;15.60;68.20;;;;;;4999540;28;89203;-82
2023/04/22 00:54:35;;;;;;;97.30;54.58;;;15.60;68.20;;;;;;4999167;28;89856;-79
2023/04/22 00:57:02;;;;;;;98.45;54.53;;;15.60;68.20;;;;;;4997879;28;90222;-79
2023/04/22 00:59:28;;;;;;;96.85;54.00;;;15.60;68.30;;;;;;4997395;28;90571;-78
2023/04/22 01:01:55;;;;;;;96.50;53.88;;;15.60;68.20;;;;;;5000457;28;91182;-80
2023/04/22 01:04:21;;;;;;;96.55;53.83;;;15.50;68.30;;;;;;5002509;28;89814;-80
2023/04/22 01:06:50;;;;;;;97.45;54.03;;;15.50;68.20;;;;;;5003661;28;93837;-80
2023/04/22 01:09:18;;;;;;;96.40;53.63;;;15.50;68.20;;;;;;4998964;28;91540;-78
2023/04/22 01:11:45;;;;;;;96.57;53.65;;;15.50;68.20;;;;;;5003469;28;89177;-79
2023/04/22 01:14:10;;;;;;;96.70;54.15;;;15.50;68.30;;;;;;5001881;28;89613;-81
2023/04/22 01:16:37;;;;;;;96.05;53.95;;;15.50;68.30;;;;;;4991077;28;92547;-79
2023/04/22 01:19:04;;;;;;;96.80;54.13;;;15.50;68.30;;;;;;5000821;28;94171;-78
2023/04/22 01:21:32;;;;;;;95.93;53.95;;;15.50;68.20;;;;;;5000452;28;89814;-78
2023/04/22 01:23:59;;;;;;;97.32;54.33;;;15.50;68.30;;;;;;4998072;28;89366;-79
2023/04/22 01:26:25;;;;;;;97.57;53.67;;;15.50;68.30;;;;;;4999153;28;95235;-78
2023/04/22 01:28:51;;;;;;;96.78;54.08;;;15.50;68.30;;;;;;5003189;28;94045;-79
2023/04/22 01:31:17;;;;;;;97.40;54.13;;;15.40;68.30;;;;;;5000308;28;89587;-78
2023/04/22 01:33:43;;;;;;;96.13;53.78;;;15.40;68.30;;;;;;5000035;28;90214;-79
2023/04/22 01:36:10;;;;;;;97.00;54.15;;;15.40;68.40;;;;;;5000402;28;93000;-79
2023/04/22 01:38:36;;;;;;;96.57;54.20;;;15.40;68.40;;;;;;4999405;28;89515;-80
2023/04/22 01:41:02;;;;;;;96.35;53.85;;;15.40;68.30;;;;;;4997892;28;89798;-78
2023/04/22 01:43:32;;;;;;;96.70;53.83;;;15.40;68.30;;;;;;4998554;28;88874;-79
2023/04/22 01:46:00;;;;;;;96.07;53.85;;;15.40;68.20;;;;;;4996919;28;92501;-80
2023/04/22 01:48:26;;;;;;;96.10;53.90;;;15.40;68.20;;;;;;4993797;28;92660;-79
2023/04/22 01:50:51;;;;;;;96.90;54.40;;;15.30;68.20;;;;;;4997893;28;90720;-79
2023/04/22 01:53:17;;;;;;;96.43;53.83;;;15.40;68.20;;;;;;5003695;28;92234;-79
2023/04/22 01:55:43;;;;;;;97.38;53.92;;;15.30;68.10;;;;;;5002318;28;90214;-78
2023/04/22 01:58:09;;;;;;;96.57;54.33;;;15.30;68.10;;;;;;5000115;28;91049;-78
2023/04/22 02:00:35;;;;;;;96.05;53.83;;;15.30;68.20;;;;;;5002632;28;89328;-78
2023/04/22 02:03:00;;;;;;;95.57;53.30;;;15.30;68.20;;;;;;4998643;28;89677;-81
2023/04/22 02:05:27;;;;;;;96.85;54.00;;;15.30;68.20;;;;;;4993131;28;93089;-78
2023/04/22 02:07:53;;;;;;;96.32;53.90;;;15.30;68.20;;;;;;4996166;28;91673;-80
2023/04/22 02:10:19;;;;;;;96.47;54.25;;;15.30;68.20;;;;;;4997100;28;90510;-82
2023/04/22 02:12:45;;;;;;;97.05;54.40;;;15.30;68.20;;;;;;4994940;28;89504;-79
2023/04/22 02:15:11;;;;;;;96.07;54.08;;;15.20;68.20;;;;;;5000438;28;96517;-80
2023/04/22 02:17:37;;;;;;;95.32;53.65;;;15.20;68.20;;;;;;5000755;28;93053;-80
2023/04/22 02:20:04;;;;;;;95.38;53.63;;;15.20;68.20;;;;;;4994962;28;92417;-78
2023/04/22 02:22:31;;;;;;;96.30;53.95;;;15.20;68.10;;;;;;5000557;28;92361;-80
2023/04/22 02:24:56;;;;;;;96.35;53.95;;;15.20;68.20;;;;;;4998374;28;90298;-78
2023/04/22 02:27:22;;;;;;;96.35;54.03;;;15.20;68.20;;;;;;5015062;27;95510;-78
2023/04/22 02:29:48;;;;;;;95.25;53.80;;;15.20;68.20;;;;;;5000654;28;89959;-80
2023/04/22 02:32:15;;;;;;;95.95;53.92;;;15.20;68.20;;;;;;4999989;28;88416;-80
2023/04/22 02:34:41;;;;;;;95.72;54.10;;;15.20;68.20;;;;;;4999633;28;90179;-83
2023/04/22 02:37:07;;;;;;;95.68;53.83;;;15.20;68.30;;;;;;4994951;28;92070;-80
2023/04/22 02:39:33;;;;;;;95.32;53.50;;;15.20;68.20;;;;;;4999180;28;90703;-79
2023/04/22 02:41:58;;;;;;;96.60;54.10;;;15.20;68.30;;;;;;5000981;28;89586;-78
2023/04/22 02:44:24;;;;;;;95.88;54.05;;;15.10;68.10;;;;;;5001862;28;93099;-79
2023/04/22 02:46:50;;;;;;;96.38;53.47;;;15.10;68.20;;;;;;4993431;28;89832;-79
2023/04/22 02:49:16;;;;;;;95.47;53.72;;;15.10;68.20;;;;;;4991390;28;89619;-78
2023/04/22 02:51:41;;;;;;;97.30;54.33;;;15.10;68.10;;;;;;5000046;28;89721;-81
2023/04/22 02:54:07;;;;;;;96.72;54.20;;;15.10;68.10;;;;;;5002227;28;93024;-79
2023/04/22 02:56:33;;;;;;;95.82;53.83;;;15.10;68.20;;;;;;4997832;28;92762;-79
2023/04/22 02:58:58;;;;;;;96.88;54.28;;;15.10;68.20;;;;;;5003088;28;89485;-78
2023/04/22 03:01:24;;;;;;;96.18;54.10;;;15.10;68.20;;;;;;4998997;28;89677;-79
2023/04/22 03:03:49;;;;;;;96.32;53.92;;;15.10;68.10;;;;;;4999800;28;91395;-79
2023/04/22 03:06:15;;;;;;;95.07;53.55;;;15.00;68.10;;;;;;4997728;28;95668;-81
2023/04/22 03:08:41;;;;;;;95.47;53.83;;;15.00;68.10;;;;;;4997644;28;89434;-80
2023/04/22 03:11:06;;;;;;;95.95;54.08;;;15.10;68.20;;;;;;5013962;27;89455;-79
2023/04/22 03:13:32;;;;;;;96.03;54.13;;;15.00;68.20;;;;;;4997420;28;90816;-78
2023/04/22 03:15:58;;;;;;;95.63;53.95;;;15.00;68.20;;;;;;5001697;28;93451;-79
2023/04/22 03:18:23;;;;;;;95.75;53.90;;;15.00;68.10;;;;;;5001715;28;90276;-80
2023/04/22 03:20:49;;;;;;;95.72;53.78;;;15.00;68.10;;;;;;4998055;28;90244;-78
2023/04/22 03:23:15;;;;;;;96.43;53.92;;;15.00;68.10;;;;;;5000201;28;90824;-79
2023/04/22 03:25:40;;;;;;;96.88;54.10;;;15.00;68.10;;;;;;4999368;28;92886;-80
2023/04/22 03:28:06;;;;;;;96.60;54.17;;;15.00;68.00;;;;;;4995120;28;90713;-78
2023/04/22 03:30:32;;;;;;;97.10;54.40;;;14.90;68.00;;;;;;4998293;28;90279;-78
2023/04/22 03:32:57;;;;;;;95.65;54.03;;;14.90;68.00;;;;;;5002097;28;93005;-81
2023/04/22 03:35:23;;;;;;;95.97;53.80;;;14.90;68.00;;;;;;4996596;28;92417;-80
2023/04/22 03:37:49;;;;;;;95.78;53.65;;;15.00;68.00;;;;;;5000521;28;90979;-79
2023/04/22 03:40:15;;;;;;;96.57;53.85;;;14.90;68.00;;;;;;4998403;28;89749;-82
2023/04/22 03:42:41;;;;;;;96.30;53.75;;;14.90;68.00;;;;;;4997339;28;96276;-79
2023/04/22 03:45:06;;;;;;;96.00;54.15;;;14.90;67.90;;;;;;5001107;28;91113;-78
2023/04/22 03:47:32;;;;;;;95.82;54.10;;;14.90;68.00;;;;;;4997401;28;90031;-78
2023/04/22 03:49:58;;;;;;;95.63;53.92;;;14.90;68.00;;;;;;4996276;28;89638;-79
2023/04/22 03:52:23;;;;;;;95.63;53.97;;;14.90;68.00;;;;;;4999874;28;93568;-78
2023/04/22 03:54:49;;;;;;;96.53;54.22;;;14.90;68.80;;;;;;5007055;27;93410;-79
2023/04/22 03:57:15;;;;;;;95.85;53.88;;;14.90;68.00;;;;;;4999415;28;90833;-80
2023/04/22 03:59:40;;;;;;;96.45;53.90;;;14.90;68.00;;;;;;4998540;28;89263;-81
2023/04/22 04:02:06;;;;;;;96.15;54.08;;;14.90;68.00;;;;;;4999962;28;90867;-79
2023/04/22 04:04:33;;;;;;;96.15;54.05;;;14.90;68.00;;;;;;4999338;28;90016;-78
2023/04/22 04:06:59;;;;;;;95.45;53.83;;;14.80;67.90;;;;;;4999012;28;89779;-79
2023/04/22 04:09:25;;;;;;;97.10;54.53;;;14.80;68.10;;;;;;4994408;28;91825;-79
2023/04/22 04:11:51;;;;;;;96.45;54.42;;;14.80;68.00;;;;;;4995252;28;94100;-81
2023/04/22 04:14:17;;;;;;;95.28;53.20;;;14.80;68.00;;;;;;4991492;28;93155;-80
2023/04/22 04:16:43;;;;;;;95.28;54.03;;;14.80;68.10;;;;;;4998275;28;90296;-79
2023/04/22 04:19:09;;;;;;;95.95;54.20;;;14.80;68.10;;;;;;4993520;28;89999;-79
2023/04/22 04:21:35;;;;;;;96.03;54.10;;;14.80;68.10;;;;;;4992984;28;90492;-80
2023/04/22 04:24:01;;;;;;;96.43;54.05;;;14.80;68.80;;;;;;5002057;28;93269;-83
2023/04/22 04:26:27;;;;;;;96.50;54.55;;;14.80;68.10;;;;;;4997959;28;89996;-79
2023/04/22 04:28:54;;;;;;;96.25;54.22;;;14.80;68.00;;;;;;4995561;28;90144;-82
2023/04/22 04:31:20;;;;;;;94.35;53.83;;;14.80;68.00;;;;;;4996549;28;92492;-80
2023/04/22 04:33:46;;;;;;;96.72;54.25;;;14.80;68.00;;;;;;5002737;28;92798;-78
2023/04/22 04:36:12;;;;;;;95.28;54.05;;;14.80;68.10;;;;;;4999531;27;92772;-79
2023/04/22 04:38:38;;;;;;;94.80;53.67;;;14.70;67.90;;;;;;5002992;28;89567;-78
2023/04/22 04:41:04;;;;;;;96.50;54.35;;;14.80;68.00;;;;;;4994874;28;94672;-79
2023/04/22 04:43:29;;;;;;;95.07;53.72;;;14.70;67.90;;;;;;5000734;28;93341;-79
2023/04/22 04:45:56;;;;;;;95.95;54.00;;;14.70;67.80;;;;;;5003835;28;89298;-79
2023/04/22 04:48:23;;;;;;;98.45;54.03;;;14.70;67.90;;;;;;5000385;28;89943;-80
2023/04/22 04:50:52;;;;;;;96.07;54.35;;;14.70;68.10;;;;;;5006160;28;92840;-79
2023/04/22 04:53:20;;;;;;;95.20;53.78;;;14.70;68.10;;;;;;4998904;28;89947;-79
2023/04/22 04:55:46;;;;;;;96.78;53.85;;;14.70;68.10;;;;;;5001108;28;89511;-79
2023/04/22 04:58:11;;;;;;;96.30;53.47;;;14.70;68.10;;;;;;4996309;28;89425;-79
2023/04/22 05:00:37;;;;;;;95.88;54.25;;;14.70;68.10;;;;;;5004274;28;91478;-79
2023/04/22 05:03:03;;;;;;;95.50;53.75;;;14.70;68.10;;;;;;4999307;28;92756;-80
2023/04/22 05:05:28;;;;;;;95.03;53.75;;;14.70;68.10;;;;;;4997540;28;91673;-80
2023/04/22 05:07:54;;;;;;;97.22;54.15;;;14.70;68.10;;;;;;5003699;28;89603;-82
2023/04/22 05:10:20;;;;;;;94.78;53.67;;;14.70;68.00;;;;;;5002997;28;92999;-79
2023/04/22 05:12:46;;;;;;;95.95;53.95;;;14.70;68.00;;;;;;5012634;27;94346;-78
2023/04/22 05:15:13;;;;;;;95.55;54.08;;;14.70;68.10;;;;;;4996129;28;89075;-83
2023/04/22 05:17:39;;;;;;;95.88;54.42;;;14.70;68.10;;;;;;5009561;28;92280;-78
2023/04/22 05:20:05;;;;;;;95.70;54.03;;;14.70;68.10;;;;;;5000584;28;92913;-80
2023/04/22 05:22:31;;;;;;;95.85;54.30;;;14.70;68.10;;;;;;4999355;28;91285;-79
2023/04/22 05:24:56;;;;;;;95.15;54.13;;;14.60;68.00;;;;;;5002744;28;90726;-79
2023/04/22 05:27:22;;;;;;;95.28;53.92;;;14.70;68.10;;;;;;4998550;28;90489;-79
2023/04/22 05:29:48;;;;;;;95.45;53.70;;;14.60;68.00;;;;;;4998192;28;93872;-79
2023/04/22 05:32:13;;;;;;;96.75;54.35;;;14.70;68.10;;;;;;5001956;28;93747;-82
2023/04/22 05:34:39;;;;;;;95.78;54.17;;;14.60;68.10;;;;;;5001167;28;90401;-78
2023/04/22 05:37:05;;;;;;;95.30;54.13;;;14.60;68.00;;;;;;4997097;28;90999;-79
2023/04/22 05:39:31;;;;;;;96.72;53.97;;;14.60;68.00;;;;;;4995482;28;92988;-79
2023/04/22 05:41:57;;;;;;;95.40;54.05;;;14.60;68.00;;;;;;5001192;28;91982;-80
2023/04/22 05:44:23;;;;;;;96.13;54.25;;;14.60;68.00;;;;;;4997426;28;89271;-79
2023/04/22 05:46:48;;;;;;;95.20;54.08;;;14.60;68.10;;;;;;5001284;28;89053;-78
2023/04/22 05:49:14;;;;;;;95.28;53.65;;;14.60;68.10;;;;;;4997296;28;93334;-78
2023/04/22 05:51:41;;;;;;;94.97;53.67;;;14.60;68.10;;;;;;4996945;28;89918;-81
2023/04/22 05:54:07;;;;;;;96.72;54.45;;;14.60;68.10;;;;;;4991732;28;90496;-83
2023/04/22 05:56:32;;;;;;;95.78;53.85;;;14.60;68.10;;;;;;5000436;28;89364;-79
2023/04/22 05:58:58;;;;;;;96.00;53.95;;;14.60;68.10;;;;;;4999486;28;89654;-78
2023/04/22 06:01:24;;;;;;;95.80;54.15;;;14.60;68.10;;;;;;4997184;28;93040;-79
2023/04/22 06:03:50;;;;;;;95.78;54.30;;;14.60;68.20;;;;;;4990553;28;92369;-78
2023/04/22 06:06:16;;;;;;;96.30;54.40;;;14.50;68.20;;;;;;4997672;28;89693;-83
2023/04/22 06:08:41;;;;;;;96.72;54.13;;;14.60;68.40;;;;;;5000444;28;91102;-79
2023/04/22 06:11:07;;;;;;;95.82;54.53;;;14.60;68.40;;;;;;4994716;28;92388;-79
2023/04/22 06:13:33;;;;;;;95.72;54.15;;;14.60;68.40;;;;;;4995475;28;89988;-79
2023/04/22 06:15:59;;;;;;;95.47;53.75;;;14.60;68.30;;;;;;5000043;28;92442;-79
2023/04/22 06:18:25;;;;;;;96.28;54.22;;;14.60;68.30;;;;;;4994274;28;91100;-79
2023/04/22 06:20:51;;;;;;;96.03;54.17;;;14.60;68.30;;;;;;4998032;28;93432;-79
2023/04/22 06:23:16;;;;;;;100.85;54.50;;;14.60;68.40;;;;;;5000821;28;89911;-79
2023/04/22 06:25:42;;;;;;;98.03;54.67;;;14.60;68.40;;;;;;5001341;28;92343;-80
2023/04/22 06:28:08;;;;;;;95.95;54.33;;;14.60;68.30;;;;;;4999095;28;93106;-78
2023/04/22 06:30:33;;;;;;;96.22;54.20;;;14.60;68.30;;;;;;4994110;28;92537;-83
2023/04/22 06:32:59;;;;;;;95.40;54.22;;;14.60;68.40;;;;;;5002961;28;89559;-79
2023/04/22 06:35:25;;;;;;;95.90;54.00;;;14.60;68.30;;;;;;5007182;28;88599;-78
2023/04/22 06:37:51;;;;;;;96.05;54.75;;;14.60;68.30;;;;;;5000400;28;89691;-80
2023/04/22 06:40:17;;;;;;;96.28;54.22;;;14.50;68.20;;;;;;5000164;28;92510;-82
2023/04/22 06:42:42;;;;;;;96.80;54.67;;;14.50;68.30;;;;;;5001136;28;90399;-79
2023/04/22 06:45:11;;;;;;;97.25;54.17;;;14.50;68.30;;;;;;5002554;28;92073;-80
2023/04/22 06:47:38;;;;;;;96.78;54.55;;;14.60;68.30;;;;;;5002494;28;93193;-78
2023/04/22 06:50:08;;;;;;;96.15;54.40;;;14.50;68.30;;;;;;5003772;28;92739;-78
2023/04/22 06:52:34;;;;;;;95.88;54.15;;;14.60;68.40;;;;;;4999657;28;89780;-78
2023/04/22 06:55:01;;;;;;;95.70;54.05;;;14.60;68.30;;;;;;5014833;27;92504;-79
2023/04/22 06:57:27;;;;;;;96.00;54.45;;;14.60;68.40;;;;;;4999795;28;90214;-82
2023/04/22 06:59:53;;;;;;;97.30;54.92;;;14.60;68.30;;;;;;5006104;28;92259;-78
2023/04/22 07:02:19;;;;;;;97.90;54.38;;;14.60;68.30;;;;;;5004336;28;89549;-79
2023/04/22 07:04:44;;;;;;;96.72;54.30;;;14.60;68.30;;;;;;4999018;28;90363;-78
2023/04/22 07:07:10;;;;;;;96.53;54.53;;;14.60;68.40;;;;;;4997288;28;93128;-79
2023/04/22 07:09:36;;;;;;;95.97;54.30;;;14.60;68.50;;;;;;4998729;28;94432;-78
2023/04/22 07:12:01;;;;;;;94.93;53.85;;;14.50;68.50;;;;;;5000404;28;91599;-78
2023/04/22 07:14:27;;;;;;;97.13;54.70;;;14.50;68.40;;;;;;5000536;28;89596;-79
2023/04/22 07:16:53;;;;;;;96.47;53.65;;;14.60;68.40;;;;;;5002531;28;91319;-81
2023/04/22 07:19:19;;;;;;;97.38;54.67;;;14.60;68.40;;;;;;5017459;27;92499;-78
2023/04/22 07:21:45;;;;;;;95.60;54.05;;;14.60;68.40;;;;;;4998568;28;90203;-79
2023/04/22 07:24:12;;;;;;;95.80;54.17;;;14.60;68.40;;;;;;4996605;28;88714;-80
2023/04/22 07:26:39;;;;;;;95.55;54.03;;;14.60;68.50;;;;;;4992703;28;90080;-79
2023/04/22 07:29:05;;;;;;;97.75;54.92;;;14.60;68.40;;;;;;4994075;28;91897;-79
2023/04/22 07:31:32;;;;;;;97.05;53.88;;;14.60;68.40;;;;;;4990332;28;90420;-79
2023/04/22 07:33:58;;;;;;;96.53;54.25;;;14.60;68.20;;;;;;4994974;28;90034;-79
2023/04/22 07:36:23;;;;;;;95.85;54.30;;;14.60;68.50;;;;;;4997963;28;93077;-80
2023/04/22 07:38:49;;;;;;;109.78;60.75;;;14.60;68.50;;;;;;5013616;27;93835;-78
2023/04/22 07:41:15;;;;;;;102.68;58.13;;;14.60;68.80;;;;;;4998778;28;89923;-82
2023/04/22 07:43:40;;;;;;;104.07;58.38;;;14.70;69.10;;;;;;4998986;28;90725;-79
2023/04/22 07:46:06;;;;;;;106.85;60.05;;;14.60;69.20;;;;;;4999446;28;94846;-78
2023/04/22 07:48:32;;;;;;;105.68;58.85;;;14.70;69.30;;;;;;4994933;28;88937;-79
2023/04/22 07:50:57;;;;;;;103.40;58.05;;;14.70;69.20;;;;;;5012689;27;89751;-78
2023/04/22 07:53:23;;;;;;;104.15;57.88;;;14.70;69.20;;;;;;4998717;28;89237;-83
2023/04/22 07:55:49;;;;;;;104.35;58.00;;;14.70;69.20;;;;;;4997135;28;94395;-80
2023/04/22 07:58:15;;;;;;;103.38;57.78;;;14.70;69.10;;;;;;5001178;28;96789;-78
2023/04/22 08:00:41;;;;;;;100.85;57.20;;;14.70;69.20;;;;;;4996222;28;89709;-80
2023/04/22 08:03:07;;;;;;;101.60;57.05;;;14.70;69.00;;;;;;4994491;28;89727;-79
2023/04/22 08:05:32;;;;;;;105.57;57.42;;;14.70;69.80;;;;;;5001505;28;92724;-82
2023/04/22 08:07:58;;;;;;;102.18;58.00;;;14.70;69.30;;;;;;5002029;28;89998;-81
2023/04/22 08:10:24;;;;;;;101.65;56.35;;;14.70;69.60;;;;;;5000757;28;90278;-79
2023/04/22 08:12:49;;;;;;;101.00;56.70;;;14.60;69.30;;;;;;5004219;28;89007;-81
2023/04/22 08:15:15;;;;;;;100.55;56.40;;;14.60;69.40;;;;;;5000372;28;94397;-79
2023/04/22 08:17:41;;;;;;;100.50;56.45;;;14.70;69.50;;;;;;5000771;28;89960;-79
2023/04/22 08:20:07;;;;;;;99.00;55.78;;;14.70;69.30;;;;;;5001701;28;91614;-80
2023/04/22 08:22:34;;;;;;;101.20;56.30;;;14.70;69.20;;;;;;4993787;28;90460;-80
2023/04/22 08:25:00;;;;;;;101.18;56.60;;;14.60;69.10;;;;;;4996070;28;92976;-82
2023/04/22 08:27:25;;;;;;;98.95;55.70;;;14.70;69.20;;;;;;4997524;28;93727;-78
2023/04/22 08:29:51;;;;;;;100.18;56.00;;;14.70;69.10;;;;;;4997324;28;90288;-79
2023/04/22 08:32:18;;;;;;;100.97;55.50;;;14.60;69.10;;;;;;4996451;28;88917;-83
2023/04/22 08:34:45;;;;;;;99.38;55.58;;;14.70;69.00;;;;;;5010591;27;93158;-81
2023/04/22 08:37:10;;;;;;;99.30;55.85;;;14.70;69.20;;;;;;4998271;28;92726;-80
2023/04/22 08:39:36;;;;;;;99.25;55.47;;;14.70;69.10;;;;;;4999502;28;90733;-80
2023/04/22 08:42:02;;;;;;;98.88;55.53;;;14.70;69.10;;;;;;5000858;28;89248;-80
2023/04/22 08:44:29;;;;;;;99.07;55.28;;;14.60;68.90;;;;;;4996568;28;90890;-79
2023/04/22 08:46:55;;;;;;;99.00;55.88;;;14.70;69.00;;;;;;4998758;28;93251;-82
2023/04/22 08:49:24;;;;;;;100.50;56.03;;;14.70;68.80;;;;;;5010964;27;89694;-83
2023/04/22 08:51:49;;;;;;;99.35;55.42;;;14.70;68.80;;;;;;4998153;28;90464;-81
2023/04/22 08:54:15;;;;;;;98.47;55.33;;;14.70;69.10;;;;;;4997331;28;92884;-79
2023/04/22 08:56:43;;;;;;;98.32;55.50;;;14.60;68.90;;;;;;4994575;28;96609;-80
2023/04/22 08:59:10;;;;;;;99.15;55.72;;;14.70;69.10;;;;;;4998535;28;90244;-79
2023/04/22 09:01:38;;;;;;;99.32;55.78;;;14.60;69.00;;;;;;4997203;28;90427;-79
2023/04/22 09:04:05;;;;;;;99.93;55.65;;;14.70;69.10;;;;;;4994625;28;92447;-80
2023/04/22 09:06:32;;;;;;;99.75;55.70;;;14.70;69.00;;;;;;4998076;28;94152;-81
2023/04/22 09:08:58;;;;;;;98.82;55.38;;;14.60;69.00;;;;;;4993553;28;91410;-80
2023/04/22 09:11:28;;;;;;;99.43;55.40;;;14.60;68.90;;;;;;4997529;28;89683;-80
2023/04/22 09:13:53;;;;;;;100.25;55.00;;;14.70;69.10;;;;;;4995215;28;92409;-80
2023/04/22 09:16:19;;;;;;;98.55;55.22;;;14.60;69.10;;;;;;4999201;28;90582;-81
2023/04/22 09:18:45;;;;;;;99.55;55.30;;;14.70;69.00;;;;;;4995599;28;90170;-79
2023/04/22 09:21:11;;;;;;;97.72;54.67;;;14.70;68.80;;;;;;5001899;28;90241;-80
2023/04/22 09:23:51;;;;;;;97.68;55.22;;;14.60;68.90;;;;;;4998558;28;93908;-81
2023/04/22 09:26:23;;;;;;;98.47;55.42;;;14.70;69.10;;;;;;4998954;28;92368;-81
2023/04/22 09:28:59;;;;;;;97.40;54.97;;;14.70;69.00;;;;;;4997496;28;89264;-81
2023/04/22 09:31:25;;;;;;;98.35;55.40;;;14.70;69.00;;;;;;4997270;28;90653;-82
2023/04/22 09:33:56;;;;;;;100.35;55.38;;;14.70;69.00;;;;;;4995343;28;91493;-83
2023/04/22 09:36:26;;;;;;;101.95;55.25;;;14.70;69.10;;;;;;5010845;27;93936;-82
2023/04/22 09:39:03;;;;;;;106.07;56.80;;;14.70;69.40;;;;;;4994900;28;89945;-81
2023/04/22 09:41:30;;;;;;;102.35;56.63;;;14.70;70.10;;;;;;4999351;28;89324;-82
2023/04/22 09:43:57;;;;;;;104.47;56.58;;;14.80;70.30;;;;;;5000240;28;93448;-82
2023/04/22 09:46:24;;;;;;;104.93;56.38;;;14.70;70.90;;;;;;5000281;28;92838;-81
2023/04/22 09:48:52;;;;;;;111.45;57.25;;;14.80;71.20;;;;;;5000666;28;89360;-83
2023/04/22 09:51:18;;;;;;;104.88;56.80;;;14.80;71.80;;;;;;4996659;28;89235;-81
2023/04/22 09:53:45;;;;;;;105.78;57.15;;;14.80;72.10;;;;;;4996476;28;92040;-86
2023/04/22 09:56:10;;;;;;;107.60;57.58;;;14.80;72.30;;;;;;4994844;28;93237;-82
2023/04/22 09:58:39;;;;;;;107.22;57.97;;;14.80;72.80;;;;;;5000365;28;90545;-82
2023/04/22 10:01:05;;;;;;;107.35;57.30;;;14.80;73.20;;;;;;5000486;28;89870;-80
2023/04/22 10:03:31;;;;;;;106.95;57.80;;;14.80;73.00;;;;;;4994309;28;92789;-81
2023/04/22 10:05:58;;;;;;;108.53;57.42;;;14.80;72.90;;;;;;5000712;28;92124;-81
2023/04/22 10:08:25;;;;;;;108.35;58.13;;;14.80;73.30;;;;;;4999391;28;89831;-81
2023/04/22 10:10:52;;;;;;;112.20;58.42;;;14.80;74.60;;;;;;5015435;27;89875;-80
2023/04/22 10:13:18;;;;;;;107.57;57.83;;;14.80;74.30;;;;;;4995824;28;92454;-83
2023/04/22 10:15:49;;;;;;;112.45;57.95;;;14.80;74.70;;;;;;5004088;28;90088;-81
2023/04/22 10:18:20;;;;;;;105.03;57.03;;;14.90;74.60;;;;;;5002828;28;92443;-79
2023/04/22 10:20:47;;;;;;;110.65;57.20;;;14.90;74.40;;;;;;4999565;28;89884;-80
2023/04/22 10:23:17;;;;;;;109.20;57.08;;;14.90;74.30;;;;;;4998430;28;93874;-80
2023/04/22 10:25:51;;;;;;;105.35;56.97;;;14.90;73.90;;;;;;5000145;28;90844;-85
2023/04/22 10:28:17;;;;;;;107.35;58.15;;;14.90;74.50;;;;;;4995617;28;89614;-84
2023/04/22 10:30:43;;;;;;;106.20;57.03;;;15.00;75.40;;;;;;4997862;28;92438;-80
2023/04/22 10:33:26;;;;;;;106.45;57.17;;;15.10;75.80;;;;;;4998490;28;92484;-82
2023/04/22 10:36:13;;;;;;;108.95;56.83;;;15.10;75.70;;;;;;4996652;28;90905;-83
2023/04/22 10:38:41;;;;;;;107.60;57.20;;;15.10;75.20;;;;;;5002375;27;90166;-81
2023/04/22 10:41:13;;;;;;;106.13;56.67;;;15.10;75.20;;;;;;4994089;28;88910;-81
2023/04/22 10:43:47;;;;;;;107.70;56.92;;;15.10;75.30;;;;;;4994891;28;92357;-82
2023/04/22 10:46:36;;;;;;;102.28;56.25;;;15.10;74.00;;;;;;4997742;28;92102;-84
2023/04/22 10:49:12;;;;;;;107.82;56.72;;;15.20;73.20;;;;;;4992923;28;90957;-83
2023/04/22 10:51:48;;;;;;;106.85;56.42;;;15.20;73.30;;;;;;4992844;28;89478;-81
2023/04/22 10:54:26;;;;;;;105.45;56.88;;;15.20;73.90;;;;;;4994515;28;94526;-84
2023/04/22 10:57:10;;;;;;;109.43;56.47;;;15.20;73.60;;;;;;4996910;28;93070;-81
2023/04/22 10:59:51;;;;;;;108.68;56.50;;;15.20;72.70;;;;;;4995409;28;92198;-84
2023/04/22 11:02:17;;;;;;;106.33;57.23;;;15.20;72.50;;;;;;4993819;28;90390;-81
2023/04/22 11:04:44;;;;;;;106.35;56.40;;;15.30;74.10;;;;;;4990591;28;94116;-81
2023/04/22 11:07:25;;;;;;;104.68;56.05;;;15.30;73.80;;;;;;4992641;28;92568;-83
2023/04/22 11:10:01;;;;;;;105.13;55.55;;;15.30;73.80;;;;;;4995819;28;90140;-84
2023/04/22 11:12:38;;;;;;;102.55;55.78;;;15.30;72.80;;;;;;4993683;28;89707;-82
2023/04/22 11:15:25;;;;;;;102.90;55.63;;;15.30;72.50;;;;;;4994515;28;93674;-82
2023/04/22 11:17:52;;;;;;;102.60;55.80;;;15.30;72.20;;;;;;4997003;28;90750;-83
2023/04/22 11:20:18;;;;;;;106.50;55.88;;;15.30;72.20;;;;;;5001078;28;89902;-84
2023/04/22 11:22:52;;;;;;;103.03;55.88;;;15.40;73.20;;;;;;4991718;28;92002;-83
2023/04/22 11:25:18;;;;;;;104.22;55.75;;;15.30;72.00;;;;;;4995929;28;90462;-84
2023/04/22 11:27:44;;;;;;;102.32;55.90;;;15.40;72.00;;;;;;5011247;27;91354;-84
2023/04/22 11:30:21;;;;;;;103.07;56.13;;;15.40;72.60;;;;;;4994373;28;90120;-82
2023/04/22 11:32:48;;;;;;;104.70;55.42;;;15.40;73.10;;;;;;4989596;28;91418;-81
2023/04/22 11:35:21;;;;;;;104.05;55.92;;;15.40;71.70;;;;;;4992777;28;92337;-86
2023/04/22 11:37:47;;;;;;;103.50;56.08;;;15.40;72.80;;;;;;4995225;28;90630;-81
2023/04/22 11:40:17;;;;;;;102.60;55.72;;;15.40;73.30;;;;;;4999926;28;90618;-82
2023/04/22 11:42:43;;;;;;;105.57;56.25;;;15.50;72.40;;;;;;5000974;28;90532;-82
2023/04/22 11:45:10;;;;;;;105.70;55.97;;;15.40;72.20;;;;;;4994116;28;94312;-80
2023/04/22 11:47:36;;;;;;;101.90;55.28;;;15.50;72.40;;;;;;4995568;28;92669;-86
2023/04/22 11:50:08;;;;;;;103.13;55.47;;;15.50;72.00;;;;;;5007554;27;90061;-81
2023/04/22 11:52:47;;;;;;;104.25;55.75;;;15.50;72.50;;;;;;4988923;28;90643;-83
2023/04/22 11:55:14;;;;;;;100.15;55.10;;;15.50;71.90;;;;;;4990809;28;90284;-83
2023/04/22 11:57:41;;;;;;;104.82;55.45;;;15.50;71.90;;;;;;5006440;27;89984;-80
2023/04/22 12:00:11;;;;;;;104.60;55.05;;;15.50;73.30;;;;;;4992962;28;89228;-85
2023/04/22 12:02:40;;;;;;;103.37;55.07;;;15.60;72.90;;;;;;4990629;28;90141;-86
2023/04/22 12:05:10;;;;;;;103.75;55.35;;;15.60;73.10;;;;;;4976451;28;92877;-82
2023/04/22 12:07:36;;;;;;;103.20;55.17;;;15.60;73.70;;;;;;4993398;28;93992;-83
2023/04/22 12:10:04;;;;;;;107.70;55.05;;;15.60;74.10;;;;;;4995002;28;89503;-81
2023/04/22 12:12:31;;;;;;;102.07;55.10;;;15.70;74.20;;;;;;4993489;28;90397;-82
2023/04/22 12:15:05;;;;;;;100.13;55.13;;;15.70;73.40;;;;;;4993705;28;92349;-81
2023/04/22 12:17:30;;;;;;;102.28;54.95;;;15.70;73.10;;;;;;4994007;28;92643;-81
2023/04/22 12:19:56;;;;;;;103.10;55.28;;;15.70;72.70;;;;;;5000251;28;91245;-83
2023/04/22 12:22:26;;;;;;;102.65;55.03;;;15.80;72.40;;;;;;4994038;28;89337;-81